Time;durP1;ratioP1;P1;durP2;ratioP2;P2;SDS_P1;SDS_P2;PMS_P1;PMS_P2;Temp;Humidity;BMP_temperature;BMP_pressure;BME280_temperature;BME280_humidity;BME280_pressure;Samples;Min_cycle;Max_cycle;Signal;HPM_P1;HPM_P2
2021/08/01 00:01:05;;;;;;;19.42;10.65;;;;;;;;;;5051176;28;20548;-59
2021/08/01 00:03:30;;;;;;;18.15;11.35;;;;;;;;;;5053181;28;20072;-59
2021/08/01 00:05:56;;;;;;;15.25;10.63;;;;;;;;;;5037613;28;20140;-61
2021/08/01 00:08:23;;;;;;;16.35;10.07;;;;;;;;;;5034303;28;20036;-60
2021/08/01 00:10:50;;;;;;;16.20;10.82;;;;;;;;;;5036850;28;20048;-60
2021/08/01 00:13:16;;;;;;;22.58;10.95;;;;;;;;;;5034416;28;20437;-58
2021/08/01 00:15:41;;;;;;;21.60;10.52;;;;;;;;;;5046219;28;20051;-58
2021/08/01 00:18:07;;;;;;;18.33;10.75;;;;;;;;;;5045367;28;20049;-59
2021/08/01 00:20:36;;;;;;;20.83;10.98;;;;;;;;;;5034612;28;20059;-59
2021/08/01 00:23:02;;;;;;;17.13;11.43;;;;;;;;;;5035533;28;20059;-60
2021/08/01 00:25:28;;;;;;;23.35;11.68;;;;;;;;;;5034662;28;20171;-60
2021/08/01 00:27:54;;;;;;;18.73;11.32;;;;;;;;;;5035219;28;20037;-61
2021/08/01 00:30:20;;;;;;;20.75;11.27;;;;;;;;;;5033989;28;20055;-59
2021/08/01 00:32:46;;;;;;;18.25;11.52;;;;;;;;;;5034545;28;20037;-61
2021/08/01 00:35:12;;;;;;;21.60;12.80;;;;;;;;;;5035808;28;20040;-60
2021/08/01 00:37:37;;;;;;;18.48;11.60;;;;;;;;;;5033798;28;20040;-59
2021/08/01 00:40:06;;;;;;;17.45;12.25;;;;;;;;;;5036568;28;20239;-59
2021/08/01 00:42:33;;;;;;;18.20;12.50;;;;;;;;;;5035116;28;20558;-59
2021/08/01 00:44:59;;;;;;;18.67;11.93;;;;;;;;;;5035838;28;20083;-60
2021/08/01 00:47:24;;;;;;;21.60;13.02;;;;;;;;;;5034405;28;20152;-59
2021/08/01 00:49:50;;;;;;;19.63;12.35;;;;;;;;;;5034501;28;20033;-61
2021/08/01 00:52:16;;;;;;;29.08;13.55;;;;;;;;;;5035561;28;20045;-60
2021/08/01 00:54:42;;;;;;;22.20;12.23;;;;;;;;;;5046639;28;20040;-59
2021/08/01 00:57:08;;;;;;;23.63;13.10;;;;;;;;;;5047913;28;20037;-59
2021/08/01 00:59:34;;;;;;;22.70;13.77;;;;;;;;;;5033039;28;20037;-59
2021/08/01 01:02:15;;;;;;;19.88;13.07;;;;;;;;;;5035525;28;20049;-59
2021/08/01 01:04:44;;;;;;;22.17;12.55;;;;;;;;;;5034378;28;20566;-60
2021/08/01 01:07:20;;;;;;;21.20;13.50;;;;;;;;;;5041581;28;20136;-60
2021/08/01 01:09:51;;;;;;;20.13;13.63;;;;;;;;;;5041749;28;20601;-59
2021/08/01 01:12:20;;;;;;;21.58;13.07;;;;;;;;;;5035209;28;20052;-61
2021/08/01 01:14:48;;;;;;;27.73;13.15;;;;;;;;;;5035334;28;20117;-61
2021/08/01 01:17:16;;;;;;;19.65;13.27;;;;;;;;;;5034972;28;20130;-61
2021/08/01 01:20:00;;;;;;;20.60;13.70;;;;;;;;;;5034509;28;20037;-61
2021/08/01 01:22:26;;;;;;;21.98;13.60;;;;;;;;;;5033399;28;20132;-61
2021/08/01 01:24:53;;;;;;;22.85;13.88;;;;;;;;;;5038400;28;20441;-60
2021/08/01 01:27:30;;;;;;;21.23;14.27;;;;;;;;;;5037675;28;20494;-61
2021/08/01 01:29:58;;;;;;;25.00;15.38;;;;;;;;;;5038127;28;20103;-60
2021/08/01 01:32:42;;;;;;;23.85;15.30;;;;;;;;;;5046176;28;20563;-60
2021/08/01 01:35:18;;;;;;;22.55;15.15;;;;;;;;;;5038564;28;20083;-61
2021/08/01 01:37:45;;;;;;;23.58;15.50;;;;;;;;;;5037973;28;20045;-61
2021/08/01 01:40:11;;;;;;;28.85;16.30;;;;;;;;;;5039013;28;20083;-61
2021/08/01 01:42:38;;;;;;;24.58;16.02;;;;;;;;;;5039999;28;20096;-60
2021/08/01 01:45:04;;;;;;;24.95;15.45;;;;;;;;;;5039501;28;20182;-61
2021/08/01 01:47:30;;;;;;;25.95;15.20;;;;;;;;;;5039400;28;20133;-60
2021/08/01 01:49:57;;;;;;;23.98;14.73;;;;;;;;;;5041336;28;20060;-60
2021/08/01 01:52:24;;;;;;;25.90;14.48;;;;;;;;;;5059993;28;20063;-58
2021/08/01 01:54:50;;;;;;;23.70;15.73;;;;;;;;;;5048100;28;20119;-62
2021/08/01 01:57:16;;;;;;;21.05;13.70;;;;;;;;;;5061402;28;20048;-60
2021/08/01 01:59:42;;;;;;;23.77;14.52;;;;;;;;;;5059107;28;20052;-60
2021/08/01 02:02:08;;;;;;;25.63;15.40;;;;;;;;;;5060562;28;20037;-58
2021/08/01 02:04:34;;;;;;;26.20;15.43;;;;;;;;;;5059141;28;20757;-59
2021/08/01 02:07:00;;;;;;;28.15;15.05;;;;;;;;;;5058607;28;20037;-59
2021/08/01 02:09:38;;;;;;;22.85;15.13;;;;;;;;;;5058479;28;20071;-57
2021/08/01 02:12:07;;;;;;;24.75;13.70;;;;;;;;;;5059354;28;20538;-57
2021/08/01 02:14:41;;;;;;;25.92;14.35;;;;;;;;;;5058097;28;20452;-60
2021/08/01 02:17:08;;;;;;;30.52;14.93;;;;;;;;;;5059772;28;20037;-57
2021/08/01 02:19:35;;;;;;;25.73;15.88;;;;;;;;;;5057662;28;20051;-58
2021/08/01 02:22:05;;;;;;;27.70;16.05;;;;;;;;;;5057965;28;20033;-60
2021/08/01 02:24:31;;;;;;;28.95;15.85;;;;;;;;;;5057689;28;20535;-57
2021/08/01 02:26:58;;;;;;;23.08;14.73;;;;;;;;;;5057770;28;20044;-58
2021/08/01 02:29:25;;;;;;;26.63;15.75;;;;;;;;;;5056706;28;20045;-58
2021/08/01 02:31:51;;;;;;;28.00;17.02;;;;;;;;;;5059802;28;20658;-56
2021/08/01 02:34:17;;;;;;;23.67;15.00;;;;;;;;;;5057502;28;20040;-57
2021/08/01 02:36:44;;;;;;;25.85;15.38;;;;;;;;;;5055594;28;20494;-58
2021/08/01 02:39:09;;;;;;;29.75;15.98;;;;;;;;;;5057094;28;20036;-58
2021/08/01 02:41:37;;;;;;;27.80;15.55;;;;;;;;;;5056176;28;20568;-58
2021/08/01 02:44:05;;;;;;;32.20;15.73;;;;;;;;;;5039150;28;20051;-59
2021/08/01 02:46:32;;;;;;;28.58;15.38;;;;;;;;;;5053737;28;20181;-58
2021/08/01 02:48:59;;;;;;;29.38;15.77;;;;;;;;;;5034674;28;20036;-58
2021/08/01 02:51:26;;;;;;;28.70;15.93;;;;;;;;;;5054132;28;20139;-59
2021/08/01 02:53:53;;;;;;;29.42;15.77;;;;;;;;;;5046706;28;20159;-60
2021/08/01 02:56:21;;;;;;;30.63;15.77;;;;;;;;;;5055881;28;20089;-59
2021/08/01 02:58:48;;;;;;;26.15;15.98;;;;;;;;;;5054922;28;20051;-58
2021/08/01 03:01:14;;;;;;;24.73;15.70;;;;;;;;;;5057142;28;20040;-58
2021/08/01 03:03:40;;;;;;;29.83;16.63;;;;;;;;;;5055135;28;20063;-58
2021/08/01 03:06:07;;;;;;;29.27;16.23;;;;;;;;;;5056486;28;20066;-59
2021/08/01 03:08:33;;;;;;;24.15;15.50;;;;;;;;;;5054828;28;20040;-60
2021/08/01 03:10:59;;;;;;;30.15;17.35;;;;;;;;;;5055510;28;20052;-59
2021/08/01 03:13:25;;;;;;;29.05;16.88;;;;;;;;;;5054701;28;20082;-61
2021/08/01 03:15:51;;;;;;;29.45;17.10;;;;;;;;;;5056504;28;20060;-60
2021/08/01 03:18:17;;;;;;;25.08;16.70;;;;;;;;;;5054713;28;20174;-59
2021/08/01 03:20:43;;;;;;;80.07;19.25;;;;;;;;;;5022722;28;20043;-58
2021/08/01 03:23:09;;;;;;;33.55;17.25;;;;;;;;;;5051244;28;20133;-59
2021/08/01 03:25:35;;;;;;;36.95;16.42;;;;;;;;;;5034565;28;20048;-60
2021/08/01 03:28:02;;;;;;;35.75;17.88;;;;;;;;;;5034913;28;20114;-59
2021/08/01 03:30:28;;;;;;;30.08;16.50;;;;;;;;;;5035847;28;20510;-60
2021/08/01 03:32:54;;;;;;;29.10;17.73;;;;;;;;;;5037036;28;20052;-59
2021/08/01 03:35:21;;;;;;;35.45;17.67;;;;;;;;;;5034900;28;20041;-60
2021/08/01 03:37:47;;;;;;;25.63;16.25;;;;;;;;;;5035923;28;20045;-60
2021/08/01 03:40:13;;;;;;;34.20;17.75;;;;;;;;;;5035792;28;20048;-60
2021/08/01 03:42:39;;;;;;;26.60;16.65;;;;;;;;;;5043709;28;20036;-59
2021/08/01 03:45:09;;;;;;;31.20;16.65;;;;;;;;;;5051791;28;20041;-59
2021/08/01 03:47:35;;;;;;;30.45;18.35;;;;;;;;;;5034639;28;20033;-60
2021/08/01 03:50:02;;;;;;;38.60;17.67;;;;;;;;;;5036939;28;20044;-60
2021/08/01 03:52:27;;;;;;;37.65;18.35;;;;;;;;;;5033348;28;20063;-60
2021/08/01 03:54:53;;;;;;;33.38;18.90;;;;;;;;;;5035429;28;20460;-60
2021/08/01 03:57:19;;;;;;;32.83;17.20;;;;;;;;;;5051277;28;20060;-61
2021/08/01 03:59:45;;;;;;;29.50;17.55;;;;;;;;;;5043944;28;20840;-59
2021/08/01 04:02:12;;;;;;;30.35;16.88;;;;;;;;;;5036433;28;20054;-59
2021/08/01 04:04:39;;;;;;;34.33;17.15;;;;;;;;;;5035426;28;20814;-59
2021/08/01 04:07:07;;;;;;;32.55;16.98;;;;;;;;;;5035222;28;20132;-58
2021/08/01 04:09:33;;;;;;;27.10;16.38;;;;;;;;;;5035217;28;20052;-59
2021/08/01 04:11:59;;;;;;;32.40;16.75;;;;;;;;;;5035769;28;20033;-60
2021/08/01 04:14:25;;;;;;;27.48;16.55;;;;;;;;;;5034830;28;20045;-60
2021/08/01 04:16:51;;;;;;;30.98;17.48;;;;;;;;;;5034797;28;20692;-59
2021/08/01 04:19:17;;;;;;;25.42;15.85;;;;;;;;;;5034882;28;20052;-60
2021/08/01 04:21:44;;;;;;;28.10;15.90;;;;;;;;;;5043385;28;20037;-59
2021/08/01 04:24:10;;;;;;;27.52;16.05;;;;;;;;;;5036037;28;20148;-60
2021/08/01 04:26:36;;;;;;;30.55;17.13;;;;;;;;;;5033617;28;20048;-60
2021/08/01 04:29:02;;;;;;;26.38;16.08;;;;;;;;;;5033646;28;20040;-59
2021/08/01 04:31:27;;;;;;;28.55;15.98;;;;;;;;;;5034030;28;20041;-60
2021/08/01 04:33:53;;;;;;;29.80;17.05;;;;;;;;;;5043477;28;20045;-60
2021/08/01 04:36:19;;;;;;;32.53;16.88;;;;;;;;;;5034642;28;20041;-60
2021/08/01 04:38:45;;;;;;;36.53;16.60;;;;;;;;;;5032249;28;20125;-59
2021/08/01 04:41:11;;;;;;;35.03;16.25;;;;;;;;;;5035738;28;20052;-60
2021/08/01 04:43:37;;;;;;;37.38;15.30;;;;;;;;;;5035012;28;20455;-59
2021/08/01 04:46:07;;;;;;;29.80;16.33;;;;;;;;;;5037659;28;20065;-60
2021/08/01 04:48:32;;;;;;;24.70;15.63;;;;;;;;;;5032697;28;20056;-60
2021/08/01 04:50:58;;;;;;;27.60;15.52;;;;;;;;;;5036209;28;20029;-60
2021/08/01 04:53:24;;;;;;;29.27;16.55;;;;;;;;;;5034768;28;20095;-59
2021/08/01 04:55:50;;;;;;;27.05;16.05;;;;;;;;;;5034826;28;20037;-60
2021/08/01 04:58:18;;;;;;;27.20;16.92;;;;;;;;;;5029458;28;20045;-59
2021/08/01 05:00:44;;;;;;;28.20;16.00;;;;;;;;;;5039464;28;20041;-59
2021/08/01 05:03:10;;;;;;;27.70;15.98;;;;;;;;;;5040031;28;20052;-60
2021/08/01 05:05:38;;;;;;;31.92;17.27;;;;;;;;;;5017970;28;20536;-61
2021/08/01 05:08:04;;;;;;;31.13;17.00;;;;;;;;;;5038748;28;20037;-62
2021/08/01 05:10:31;;;;;;;31.48;16.20;;;;;;;;;;5073211;28;20064;-61
2021/08/01 05:12:59;;;;;;;28.60;15.75;;;;;;;;;;5058957;28;20431;-60
2021/08/01 05:15:28;;;;;;;27.40;15.90;;;;;;;;;;5041094;28;20037;-61
2021/08/01 05:17:54;;;;;;;29.50;16.02;;;;;;;;;;5054871;28;20098;-61
2021/08/01 05:20:20;;;;;;;30.02;16.17;;;;;;;;;;5042773;28;20041;-59
2021/08/01 05:22:49;;;;;;;30.00;15.55;;;;;;;;;;5015560;28;20081;-59
2021/08/01 05:25:14;;;;;;;33.53;16.85;;;;;;;;;;4983953;28;20060;-55
2021/08/01 05:27:40;;;;;;;25.20;15.38;;;;;;;;;;5013078;28;20409;-54
2021/08/01 05:30:06;;;;;;;27.35;16.08;;;;;;;;;;5000647;28;20791;-57
2021/08/01 05:32:33;;;;;;;29.35;16.38;;;;;;;;;;5014839;28;20100;-58
2021/08/01 05:34:59;;;;;;;30.95;15.48;;;;;;;;;;4996285;28;20088;-57
2021/08/01 05:37:28;;;;;;;28.05;16.33;;;;;;;;;;4995589;28;20738;-56
2021/08/01 05:39:54;;;;;;;31.52;16.80;;;;;;;;;;4993161;28;20151;-56
2021/08/01 05:42:20;;;;;;;32.20;16.48;;;;;;;;;;5012925;28;20861;-57
2021/08/01 05:44:46;;;;;;;31.52;17.08;;;;;;;;;;5016457;28;20881;-56
2021/08/01 05:47:12;;;;;;;30.45;16.60;;;;;;;;;;5031400;28;20409;-58
2021/08/01 05:49:37;;;;;;;31.38;17.70;;;;;;;;;;5018506;28;21808;-58
2021/08/01 05:52:03;;;;;;;34.58;17.38;;;;;;;;;;5036005;28;20162;-58
2021/08/01 05:54:29;;;;;;;33.30;17.35;;;;;;;;;;5034311;28;20100;-55
2021/08/01 05:56:55;;;;;;;32.53;16.05;;;;;;;;;;5035279;28;20836;-58
2021/08/01 05:59:21;;;;;;;30.10;16.67;;;;;;;;;;5035867;28;20041;-58
2021/08/01 06:01:46;;;;;;;32.60;17.48;;;;;;;;;;5037541;28;20037;-58
2021/08/01 06:04:14;;;;;;;28.10;15.82;;;;;;;;;;5037707;28;20063;-56
2021/08/01 06:06:39;;;;;;;35.50;16.95;;;;;;;;;;5037675;28;20033;-56
2021/08/01 06:09:05;;;;;;;28.90;16.10;;;;;;;;;;5024347;28;20079;-56
2021/08/01 06:11:31;;;;;;;29.77;16.10;;;;;;;;;;5038502;28;20033;-55
2021/08/01 06:13:57;;;;;;;29.63;16.17;;;;;;;;;;5037670;28;20060;-57
2021/08/01 06:16:23;;;;;;;34.75;16.67;;;;;;;;;;5040562;28;20064;-58
2021/08/01 06:18:48;;;;;;;34.80;17.48;;;;;;;;;;5037838;28;20037;-57
2021/08/01 06:21:16;;;;;;;28.40;16.45;;;;;;;;;;5044217;28;22194;-57
2021/08/01 06:23:49;;;;;;;31.83;17.02;;;;;;;;;;5042104;28;20057;-55
2021/08/01 06:26:16;;;;;;;34.88;17.00;;;;;;;;;;5041385;28;20116;-55
2021/08/01 06:28:42;;;;;;;29.38;16.83;;;;;;;;;;5037333;28;20068;-58
2021/08/01 06:31:08;;;;;;;30.75;15.98;;;;;;;;;;5036887;28;20402;-58
2021/08/01 06:33:34;;;;;;;28.80;16.67;;;;;;;;;;5036238;28;20069;-57
2021/08/01 06:36:04;;;;;;;31.92;17.02;;;;;;;;;;5038300;28;20116;-57
2021/08/01 06:38:31;;;;;;;34.92;18.05;;;;;;;;;;5036705;28;20087;-56
2021/08/01 06:40:56;;;;;;;28.40;17.30;;;;;;;;;;5040520;28;20442;-57
2021/08/01 06:43:22;;;;;;;32.08;17.23;;;;;;;;;;5038627;28;20147;-53
2021/08/01 06:45:48;;;;;;;36.17;17.10;;;;;;;;;;5039060;28;20490;-56
2021/08/01 06:48:14;;;;;;;31.05;16.63;;;;;;;;;;5037340;28;20345;-54
2021/08/01 06:50:40;;;;;;;26.70;16.42;;;;;;;;;;5037439;28;20061;-55
2021/08/01 06:53:05;;;;;;;33.53;18.00;;;;;;;;;;5037728;28;20108;-56
2021/08/01 06:55:31;;;;;;;33.65;15.93;;;;;;;;;;5036903;28;20044;-56
2021/08/01 06:57:57;;;;;;;28.48;15.75;;;;;;;;;;5037639;28;20103;-56
2021/08/01 07:00:23;;;;;;;33.20;17.40;;;;;;;;;;5037143;28;20147;-55
2021/08/01 07:02:52;;;;;;;31.00;16.88;;;;;;;;;;5038416;28;20040;-57
2021/08/01 07:05:18;;;;;;;30.10;16.30;;;;;;;;;;5037636;28;20037;-56
2021/08/01 07:07:44;;;;;;;31.88;16.90;;;;;;;;;;5037753;28;20087;-56
2021/08/01 07:10:10;;;;;;;32.30;17.50;;;;;;;;;;5037405;28;20037;-56
2021/08/01 07:12:38;;;;;;;33.30;16.45;;;;;;;;;;5038433;28;20128;-56
2021/08/01 07:15:04;;;;;;;40.35;17.15;;;;;;;;;;5037819;28;20036;-55
2021/08/01 07:17:32;;;;;;;38.15;17.73;;;;;;;;;;5037294;28;20562;-54
2021/08/01 07:19:58;;;;;;;30.10;16.40;;;;;;;;;;5050828;28;20106;-56
2021/08/01 07:22:23;;;;;;;36.70;18.42;;;;;;;;;;5069423;28;20044;-57
2021/08/01 07:24:49;;;;;;;36.00;19.00;;;;;;;;;;5037177;28;20049;-57
2021/08/01 07:27:15;;;;;;;34.20;17.65;;;;;;;;;;5034404;28;20048;-56
2021/08/01 07:29:41;;;;;;;34.88;17.85;;;;;;;;;;5035510;28;20067;-57
2021/08/01 07:32:07;;;;;;;38.15;18.17;;;;;;;;;;5036666;28;20078;-55
2021/08/01 07:34:33;;;;;;;33.45;17.92;;;;;;;;;;5037456;28;20510;-57
2021/08/01 07:36:59;;;;;;;31.17;17.48;;;;;;;;;;5037517;28;20437;-56
2021/08/01 07:39:24;;;;;;;37.47;17.67;;;;;;;;;;5036172;28;20060;-57
2021/08/01 07:41:50;;;;;;;33.70;18.05;;;;;;;;;;5037963;28;20059;-56
2021/08/01 07:44:16;;;;;;;32.03;17.65;;;;;;;;;;5037499;28;20053;-56
2021/08/01 07:46:42;;;;;;;35.95;16.98;;;;;;;;;;5036435;28;20731;-54
2021/08/01 07:49:08;;;;;;;33.25;17.20;;;;;;;;;;5036974;28;20106;-57
2021/08/01 07:51:33;;;;;;;36.25;17.98;;;;;;;;;;5036108;28;20572;-56
2021/08/01 07:53:59;;;;;;;30.75;16.42;;;;;;;;;;5038460;28;20076;-55
2021/08/01 07:56:25;;;;;;;32.95;17.90;;;;;;;;;;5036644;28;20175;-56
2021/08/01 07:58:51;;;;;;;29.65;15.27;;;;;;;;;;5037900;28;20071;-58
2021/08/01 08:01:17;;;;;;;31.80;15.98;;;;;;;;;;5039353;28;20041;-54
2021/08/01 08:03:42;;;;;;;31.83;17.02;;;;;;;;;;5036558;28;20453;-56
2021/08/01 08:06:09;;;;;;;29.40;16.52;;;;;;;;;;5037587;28;20056;-58
2021/08/01 08:08:34;;;;;;;26.30;15.80;;;;;;;;;;5035522;28;20044;-57
2021/08/01 08:11:00;;;;;;;31.23;15.48;;;;;;;;;;5039164;28;20052;-56
2021/08/01 08:13:26;;;;;;;31.50;16.25;;;;;;;;;;5036584;28;20059;-56
2021/08/01 08:15:52;;;;;;;32.88;16.13;;;;;;;;;;5038463;28;20095;-55
2021/08/01 08:18:17;;;;;;;38.55;16.60;;;;;;;;;;5036281;28;20041;-57
2021/08/01 08:20:43;;;;;;;25.20;15.27;;;;;;;;;;5036590;28;20502;-56
2021/08/01 08:23:09;;;;;;;26.27;15.98;;;;;;;;;;5045265;28;20052;-57
2021/08/01 08:25:35;;;;;;;31.55;16.42;;;;;;;;;;5035742;28;20091;-56
2021/08/01 08:28:02;;;;;;;29.63;15.32;;;;;;;;;;5036560;28;20488;-56
2021/08/01 08:30:28;;;;;;;31.70;16.27;;;;;;;;;;5037093;28;20790;-56
2021/08/01 08:32:54;;;;;;;30.98;14.63;;;;;;;;;;5036321;28;20056;-54
2021/08/01 08:35:20;;;;;;;30.35;15.50;;;;;;;;;;5038716;28;20703;-55
2021/08/01 08:37:50;;;;;;;28.42;15.70;;;;;;;;;;5039944;28;20065;-56
2021/08/01 08:40:15;;;;;;;27.50;14.80;;;;;;;;;;5041265;28;20164;-56
2021/08/01 08:42:46;;;;;;;35.97;15.98;;;;;;;;;;5040162;28;20033;-56
2021/08/01 08:45:15;;;;;;;35.00;15.57;;;;;;;;;;5041703;28;20110;-55
2021/08/01 08:47:43;;;;;;;28.50;15.85;;;;;;;;;;5039175;28;20112;-56
2021/08/01 08:50:11;;;;;;;30.02;15.10;;;;;;;;;;5041257;28;20037;-57
2021/08/01 08:52:37;;;;;;;24.33;15.10;;;;;;;;;;5039452;28;20830;-56
2021/08/01 08:55:03;;;;;;;32.67;15.02;;;;;;;;;;5041998;28;20033;-57
2021/08/01 08:57:37;;;;;;;32.22;16.45;;;;;;;;;;5059655;28;20045;-56
2021/08/01 09:00:07;;;;;;;30.92;16.23;;;;;;;;;;5038613;28;20033;-56
2021/08/01 09:02:36;;;;;;;34.38;16.48;;;;;;;;;;5042330;28;20037;-56
2021/08/01 09:05:03;;;;;;;31.88;15.98;;;;;;;;;;5041114;28;20055;-55
2021/08/01 09:07:29;;;;;;;26.77;15.25;;;;;;;;;;5038807;28;22033;-56
2021/08/01 09:09:55;;;;;;;33.88;16.35;;;;;;;;;;5039504;28;20032;-56
2021/08/01 09:12:21;;;;;;;25.35;15.55;;;;;;;;;;5037881;28;20045;-54
2021/08/01 09:14:47;;;;;;;29.23;15.88;;;;;;;;;;5039658;28;20068;-54
2021/08/01 09:17:32;;;;;;;32.42;16.38;;;;;;;;;;5039094;28;20056;-56
2021/08/01 09:20:11;;;;;;;28.13;15.80;;;;;;;;;;5039713;28;20092;-56
2021/08/01 09:22:37;;;;;;;27.25;15.52;;;;;;;;;;5038971;28;20091;-55
2021/08/01 09:25:14;;;;;;;31.45;16.50;;;;;;;;;;5040616;28;20045;-57
2021/08/01 09:27:40;;;;;;;28.70;15.07;;;;;;;;;;5038362;28;20366;-56
2021/08/01 09:30:06;;;;;;;32.42;16.48;;;;;;;;;;5040751;28;20038;-55
2021/08/01 09:32:46;;;;;;;28.65;14.85;;;;;;;;;;5039452;28;20036;-56
2021/08/01 09:35:21;;;;;;;32.13;16.02;;;;;;;;;;5039395;28;20083;-57
2021/08/01 09:37:57;;;;;;;32.00;15.82;;;;;;;;;;5039001;28;20238;-56
2021/08/01 09:40:27;;;;;;;26.17;15.20;;;;;;;;;;5039294;28;20053;-56
2021/08/01 09:42:52;;;;;;;32.10;17.40;;;;;;;;;;5039735;28;20064;-56
2021/08/01 09:45:20;;;;;;;33.65;16.73;;;;;;;;;;5038259;28;20075;-56
2021/08/01 09:47:46;;;;;;;26.45;15.65;;;;;;;;;;5047958;28;20029;-56
2021/08/01 09:50:13;;;;;;;31.45;17.00;;;;;;;;;;5045086;28;20498;-57
2021/08/01 09:52:39;;;;;;;30.50;16.08;;;;;;;;;;5058680;28;20156;-55
2021/08/01 09:55:05;;;;;;;28.17;16.33;;;;;;;;;;5038563;28;20025;-57
2021/08/01 09:57:31;;;;;;;29.13;16.02;;;;;;;;;;5031736;28;20941;-53
2021/08/01 10:00:07;;;;;;;30.85;16.50;;;;;;;;;;5058099;28;20036;-54
2021/08/01 10:02:37;;;;;;;30.60;16.38;;;;;;;;;;5058375;28;20036;-56
2021/08/01 10:05:19;;;;;;;33.58;15.70;;;;;;;;;;5051454;28;20072;-53
2021/08/01 10:07:46;;;;;;;30.23;16.98;;;;;;;;;;5050721;28;20041;-57
2021/08/01 10:10:26;;;;;;;27.88;16.60;;;;;;;;;;5043330;28;20041;-56
2021/08/01 10:12:53;;;;;;;35.22;16.83;;;;;;;;;;5046064;28;20036;-57
2021/08/01 10:15:20;;;;;;;28.23;16.33;;;;;;;;;;5038762;28;20048;-56
2021/08/01 10:17:46;;;;;;;33.17;16.48;;;;;;;;;;5038628;28;20135;-56
2021/08/01 10:20:12;;;;;;;34.08;16.58;;;;;;;;;;5038909;28;20039;-56
2021/08/01 10:22:39;;;;;;;28.75;16.73;;;;;;;;;;5038290;28;20428;-56
2021/08/01 10:25:10;;;;;;;30.63;16.73;;;;;;;;;;5039190;28;20053;-58
2021/08/01 10:27:38;;;;;;;26.50;15.60;;;;;;;;;;5037624;28;20033;-56
2021/08/01 10:30:05;;;;;;;32.13;16.33;;;;;;;;;;5038718;28;20138;-55
2021/08/01 10:32:33;;;;;;;31.13;16.38;;;;;;;;;;5038146;28;20060;-57
2021/08/01 10:34:59;;;;;;;28.45;15.25;;;;;;;;;;5038322;28;20072;-55
2021/08/01 10:37:27;;;;;;;33.72;16.63;;;;;;;;;;5037438;28;20045;-57
2021/08/01 10:39:53;;;;;;;30.83;16.48;;;;;;;;;;5038499;28;20069;-54
2021/08/01 10:42:21;;;;;;;29.85;15.07;;;;;;;;;;5037347;28;20041;-56
2021/08/01 10:44:47;;;;;;;30.90;15.88;;;;;;;;;;5037690;28;20090;-56
2021/08/01 10:47:14;;;;;;;24.98;14.25;;;;;;;;;;5037677;28;20052;-57
2021/08/01 10:49:41;;;;;;;29.40;15.98;;;;;;;;;;5037752;28;20139;-57
2021/08/01 10:52:10;;;;;;;35.33;16.05;;;;;;;;;;5039856;28;20080;-56
2021/08/01 10:54:37;;;;;;;30.13;16.20;;;;;;;;;;5037494;28;20040;-56
2021/08/01 10:57:14;;;;;;;29.05;15.63;;;;;;;;;;5038009;28;20071;-55
2021/08/01 10:59:46;;;;;;;27.45;15.93;;;;;;;;;;5036944;28;20048;-54
2021/08/01 11:02:15;;;;;;;34.30;15.63;;;;;;;;;;5038179;28;20075;-53
2021/08/01 11:04:46;;;;;;;34.40;16.25;;;;;;;;;;5037393;28;21981;-54
2021/08/01 11:07:12;;;;;;;28.67;15.50;;;;;;;;;;5037538;28;20505;-56
2021/08/01 11:09:38;;;;;;;31.90;15.65;;;;;;;;;;5037592;28;20041;-54
2021/08/01 11:12:19;;;;;;;30.48;16.40;;;;;;;;;;5038678;28;20041;-55
2021/08/01 11:14:47;;;;;;;28.30;15.30;;;;;;;;;;5037808;28;20040;-54
2021/08/01 11:17:12;;;;;;;30.95;15.38;;;;;;;;;;5037784;28;20070;-55
2021/08/01 11:19:38;;;;;;;31.70;16.33;;;;;;;;;;5036717;28;20045;-57
2021/08/01 11:22:04;;;;;;;33.65;16.15;;;;;;;;;;5042686;28;20119;-56
2021/08/01 11:24:30;;;;;;;28.40;15.50;;;;;;;;;;5037169;28;20076;-57
2021/08/01 11:27:16;;;;;;;30.45;16.42;;;;;;;;;;5036591;28;20048;-57
2021/08/01 11:30:00;;;;;;;30.05;15.57;;;;;;;;;;5036617;28;20487;-56
2021/08/01 11:32:26;;;;;;;31.75;16.10;;;;;;;;;;5036256;28;20404;-56
2021/08/01 11:35:10;;;;;;;30.08;15.27;;;;;;;;;;5036083;28;20037;-54
2021/08/01 11:37:36;;;;;;;31.30;15.77;;;;;;;;;;5034547;28;20044;-57
2021/08/01 11:40:03;;;;;;;31.73;15.85;;;;;;;;;;5036263;28;20959;-57
2021/08/01 11:42:31;;;;;;;32.63;16.13;;;;;;;;;;5034626;28;20072;-57
2021/08/01 11:45:01;;;;;;;29.65;16.33;;;;;;;;;;5037198;28;20045;-54
2021/08/01 11:47:28;;;;;;;34.92;16.45;;;;;;;;;;5034995;28;20044;-57
2021/08/01 11:49:54;;;;;;;29.75;15.75;;;;;;;;;;5035686;28;20048;-56
2021/08/01 11:52:21;;;;;;;37.40;15.40;;;;;;;;;;5035273;28;20140;-56
2021/08/01 11:54:52;;;;;;;32.95;15.65;;;;;;;;;;5034544;28;20501;-55
2021/08/01 11:57:19;;;;;;;38.72;17.00;;;;;;;;;;5033464;28;20060;-55
2021/08/01 11:59:51;;;;;;;33.67;17.15;;;;;;;;;;5035779;28;20044;-55
2021/08/01 12:02:17;;;;;;;30.23;16.70;;;;;;;;;;5052061;28;20086;-57
2021/08/01 12:04:56;;;;;;;33.90;17.42;;;;;;;;;;5042259;28;20045;-58
2021/08/01 12:07:22;;;;;;;33.28;15.95;;;;;;;;;;5015601;28;20071;-58
2021/08/01 12:09:48;;;;;;;32.10;16.23;;;;;;;;;;5035246;28;20083;-56
2021/08/01 12:12:24;;;;;;;33.60;16.25;;;;;;;;;;5035952;28;20044;-58
2021/08/01 12:14:53;;;;;;;29.73;16.45;;;;;;;;;;5043522;28;20047;-58
2021/08/01 12:17:19;;;;;;;29.27;15.57;;;;;;;;;;5031230;28;20461;-58
2021/08/01 12:19:49;;;;;;;30.63;16.25;;;;;;;;;;5035966;28;20040;-58
2021/08/01 12:22:19;;;;;;;35.08;16.83;;;;;;;;;;5037267;28;20037;-57
2021/08/01 12:24:46;;;;;;;35.05;16.92;;;;;;;;;;5042668;28;20079;-57
2021/08/01 12:27:19;;;;;;;31.00;16.25;;;;;;;;;;5035176;28;20522;-57
2021/08/01 12:29:45;;;;;;;;;;;;;;;;;;5037225;28;20088;-59
2021/08/01 12:32:21;;;;;;;32.65;16.02;;;;;;;;;;5036493;28;20023;-58
2021/08/01 12:34:47;;;;;;;32.47;16.42;;;;;;;;;;5036241;28;20049;-58
2021/08/01 12:37:13;;;;;;;36.83;16.98;;;;;;;;;;5036242;28;20559;-58
2021/08/01 12:39:49;;;;;;;31.75;16.80;;;;;;;;;;5038962;28;20048;-57
2021/08/01 12:42:16;;;;;;;37.05;16.95;;;;;;;;;;5027563;28;20037;-57
2021/08/01 12:44:55;;;;;;;29.48;16.02;;;;;;;;;;5051575;28;20056;-57
2021/08/01 12:47:21;;;;;;;32.03;17.10;;;;;;;;;;5042364;28;20214;-59
2021/08/01 12:49:48;;;;;;;37.83;17.17;;;;;;;;;;5037416;28;20041;-57
2021/08/01 12:52:20;;;;;;;32.63;16.15;;;;;;;;;;5038361;28;20038;-57
2021/08/01 12:54:46;;;;;;;33.97;17.00;;;;;;;;;;5036207;28;20044;-56
2021/08/01 12:57:12;;;;;;;32.33;16.73;;;;;;;;;;5035348;28;20398;-57
2021/08/01 12:59:38;;;;;;;32.53;16.38;;;;;;;;;;5035998;28;20045;-56
2021/08/01 13:02:04;;;;;;;31.60;16.63;;;;;;;;;;5036064;28;20120;-58
2021/08/01 13:04:39;;;;;;;39.28;17.23;;;;;;;;;;5035263;28;20056;-57
2021/08/01 13:07:05;;;;;;;34.10;17.65;;;;;;;;;;5035110;28;20033;-58
2021/08/01 13:09:31;;;;;;;33.13;17.70;;;;;;;;;;5034575;28;20051;-58
2021/08/01 13:12:07;;;;;;;37.97;17.52;;;;;;;;;;5035386;28;20076;-57
2021/08/01 13:14:33;;;;;;;31.75;16.58;;;;;;;;;;5034947;28;20045;-58
2021/08/01 13:17:02;;;;;;;28.15;16.42;;;;;;;;;;5035883;28;20056;-56
2021/08/01 13:19:35;;;;;;;40.38;18.05;;;;;;;;;;5032639;28;20178;-56
2021/08/01 13:22:02;;;;;;;37.72;18.15;;;;;;;;;;5039436;28;20087;-56
2021/08/01 13:24:33;;;;;;;36.50;17.88;;;;;;;;;;5038220;28;20127;-55
2021/08/01 13:27:00;;;;;;;30.92;17.35;;;;;;;;;;5051621;28;20036;-56
2021/08/01 13:29:25;;;;;;;34.55;17.35;;;;;;;;;;5048584;28;20053;-57
2021/08/01 13:31:51;;;;;;;30.90;16.27;;;;;;;;;;5039043;28;20090;-56
2021/08/01 13:34:18;;;;;;;32.85;17.83;;;;;;;;;;5037800;28;20049;-56
2021/08/01 13:36:48;;;;;;;28.15;16.73;;;;;;;;;;5038209;28;20041;-56
2021/08/01 13:39:28;;;;;;;31.60;17.35;;;;;;;;;;5036941;28;20037;-58
2021/08/01 13:42:02;;;;;;;29.25;16.33;;;;;;;;;;5037817;28;20103;-57
2021/08/01 13:44:28;;;;;;;26.92;15.18;;;;;;;;;;5038570;28;20271;-57
2021/08/01 13:47:07;;;;;;;35.40;16.10;;;;;;;;;;5040162;28;20111;-58
2021/08/01 13:49:33;;;;;;;33.40;17.42;;;;;;;;;;5040171;28;21092;-57
2021/08/01 13:51:59;;;;;;;27.75;16.92;;;;;;;;;;5041917;28;20044;-58
2021/08/01 13:54:25;;;;;;;32.90;16.05;;;;;;;;;;5039906;28;20052;-58
2021/08/01 13:56:51;;;;;;;33.40;17.90;;;;;;;;;;5040024;28;20044;-58
2021/08/01 13:59:16;;;;;;;38.22;18.45;;;;;;;;;;5038396;28;20037;-57
2021/08/01 14:01:42;;;;;;;39.30;17.45;;;;;;;;;;5037818;28;20047;-57
2021/08/01 14:04:10;;;;;;;33.38;16.90;;;;;;;;;;5038613;28;20560;-56
2021/08/01 14:06:39;;;;;;;28.67;16.55;;;;;;;;;;5039325;28;20040;-57
2021/08/01 14:09:06;;;;;;;29.77;17.75;;;;;;;;;;5037987;28;20037;-57
2021/08/01 14:11:32;;;;;;;31.65;16.63;;;;;;;;;;5043092;28;20119;-58
2021/08/01 14:13:58;;;;;;;30.20;16.85;;;;;;;;;;5038908;28;20037;-57
2021/08/01 14:16:24;;;;;;;29.75;16.17;;;;;;;;;;5037867;28;20104;-58
2021/08/01 14:18:50;;;;;;;30.98;16.55;;;;;;;;;;5039522;28;20037;-58
2021/08/01 14:21:16;;;;;;;31.27;17.55;;;;;;;;;;5038862;28;20048;-57